Time;durP1;ratioP1;P1;durP2;ratioP2;P2;SDS_P1;SDS_P2;PMS_P1;PMS_P2;Temp;Humidity;BMP_temperature;BMP_pressure;BME280_temperature;BME280_humidity;BME280_pressure;Samples;Min_cycle;Max_cycle;Signal;HPM_P1;HPM_P2
2023/12/04 00:00:04;;;;;;;23.03;15.30;;;0.50;99.90;;;;;;5020552;28;20571;-70
2023/12/04 00:02:30;;;;;;;20.97;14.13;;;0.50;99.90;;;;;;5033815;28;20264;-70
2023/12/04 00:04:55;;;;;;;24.37;15.37;;;0.50;99.90;;;;;;5033727;28;20635;-70
2023/12/04 00:07:21;;;;;;;22.67;14.83;;;0.50;99.90;;;;;;5034213;28;20179;-70
2023/12/04 00:09:47;;;;;;;21.13;14.73;;;0.50;99.90;;;;;;5033939;28;20195;-70
2023/12/04 00:12:12;;;;;;;23.43;15.40;;;0.50;99.90;;;;;;5033797;28;20214;-70
2023/12/04 00:14:38;;;;;;;21.87;14.97;;;0.50;99.90;;;;;;5015318;28;20698;-70
2023/12/04 00:17:04;;;;;;;18.73;14.00;;;0.50;99.90;;;;;;5014062;28;20223;-70
2023/12/04 00:19:29;;;;;;;21.77;15.30;;;0.50;99.90;;;;;;5012819;28;20579;-70
2023/12/04 00:21:55;;;;;;;21.53;14.33;;;0.50;99.90;;;;;;5013964;28;20169;-70
2023/12/04 00:24:20;;;;;;;18.80;14.23;;;0.50;99.90;;;;;;5013371;28;20828;-70
2023/12/04 00:26:46;;;;;;;20.77;15.17;;;0.50;99.90;;;;;;5013626;28;20234;-70
2023/12/04 00:29:11;;;;;;;20.20;13.90;;;0.50;99.90;;;;;;5013833;28;20222;-70
2023/12/04 00:31:37;;;;;;;19.60;13.83;;;0.50;99.90;;;;;;5013584;28;20202;-70
2023/12/04 00:34:03;;;;;;;19.77;13.57;;;0.50;99.90;;;;;;5013958;28;20192;-70
2023/12/04 00:36:28;;;;;;;20.70;14.33;;;0.60;99.90;;;;;;5013530;28;20220;-70
2023/12/04 00:38:54;;;;;;;16.77;13.10;;;0.60;99.90;;;;;;5013355;28;20180;-70
2023/12/04 00:41:19;;;;;;;20.53;14.20;;;0.60;99.90;;;;;;5020352;28;20193;-70
2023/12/04 00:43:45;;;;;;;20.40;13.57;;;0.60;99.90;;;;;;5033187;28;20182;-69
2023/12/04 00:46:10;;;;;;;18.80;13.87;;;0.50;99.90;;;;;;5033168;28;20278;-70
2023/12/04 00:48:36;;;;;;;20.33;15.03;;;0.50;99.90;;;;;;5033173;28;20176;-70
2023/12/04 00:51:02;;;;;;;20.20;13.77;;;0.50;99.90;;;;;;5032476;28;20184;-72
2023/12/04 00:53:27;;;;;;;18.20;13.53;;;0.50;99.90;;;;;;5018038;28;20188;-70
2023/12/04 00:55:53;;;;;;;21.67;14.67;;;0.40;99.90;;;;;;5013979;28;20228;-69
2023/12/04 00:58:18;;;;;;;19.30;13.53;;;0.40;99.90;;;;;;5013565;28;20183;-70
2023/12/04 01:00:44;;;;;;;20.17;13.10;;;0.40;99.90;;;;;;5011550;28;20317;-70
2023/12/04 01:03:09;;;;;;;17.37;12.67;;;0.30;99.90;;;;;;5013333;28;20172;-69
2023/12/04 01:05:35;;;;;;;19.90;13.23;;;0.30;99.90;;;;;;5013025;28;20206;-70
2023/12/04 01:08:01;;;;;;;19.80;14.23;;;0.30;99.90;;;;;;5026255;28;20196;-70
2023/12/04 01:10:26;;;;;;;17.37;12.53;;;0.30;99.90;;;;;;5032307;28;20265;-70
2023/12/04 01:12:52;;;;;;;19.50;12.80;;;0.30;99.90;;;;;;5031224;28;20213;-70
2023/12/04 01:15:17;;;;;;;18.60;13.00;;;0.30;99.90;;;;;;5032806;28;20653;-70
2023/12/04 01:17:43;;;;;;;18.63;13.33;;;0.20;99.90;;;;;;5032740;28;20182;-70
2023/12/04 01:20:09;;;;;;;18.17;13.93;;;0.20;99.90;;;;;;5032513;28;20712;-70
2023/12/04 01:22:34;;;;;;;17.87;12.73;;;0.20;99.90;;;;;;5031730;28;20262;-70
2023/12/04 01:25:00;;;;;;;17.53;12.93;;;0.20;99.90;;;;;;5032586;28;20632;-70
2023/12/04 01:27:26;;;;;;;17.50;12.17;;;0.20;99.90;;;;;;5032437;28;20635;-70
2023/12/04 01:29:51;;;;;;;18.37;13.57;;;0.20;99.90;;;;;;5032558;28;20183;-70
2023/12/04 01:32:17;;;;;;;17.33;13.07;;;0.20;99.90;;;;;;5032561;28;20549;-70
2023/12/04 01:34:42;;;;;;;16.27;12.63;;;0.20;99.90;;;;;;5029552;28;20188;-70
2023/12/04 01:37:08;;;;;;;17.07;12.20;;;0.20;99.90;;;;;;5012054;28;20507;-70
2023/12/04 01:39:34;;;;;;;15.53;12.17;;;0.20;99.90;;;;;;5012582;28;20210;-70
2023/12/04 01:42:00;;;;;;;20.83;12.93;;;0.30;99.90;;;;;;5012316;28;20208;-69
2023/12/04 01:44:25;;;;;;;17.23;11.93;;;0.30;99.90;;;;;;5012375;28;20590;-70
2023/12/04 01:46:51;;;;;;;19.63;13.23;;;0.30;99.90;;;;;;5012239;28;20261;-70
2023/12/04 01:49:17;;;;;;;15.27;11.70;;;0.30;99.90;;;;;;5012374;28;20187;-70
2023/12/04 01:51:44;;;;;;;17.83;12.87;;;0.30;99.90;;;;;;5012469;28;20176;-70
2023/12/04 01:54:10;;;;;;;15.30;12.77;;;0.30;99.90;;;;;;5012355;28;20176;-70
2023/12/04 01:56:37;;;;;;;17.50;12.87;;;0.30;99.90;;;;;;5012015;28;20200;-71
2023/12/04 01:59:03;;;;;;;16.90;12.80;;;0.40;99.90;;;;;;5011775;28;20172;-70
2023/12/04 02:01:29;;;;;;;16.10;12.57;;;0.40;99.90;;;;;;5011885;28;20194;-70
2023/12/04 02:03:56;;;;;;;17.90;11.90;;;0.40;99.90;;;;;;5023964;28;20241;-70
2023/12/04 02:06:22;;;;;;;18.90;12.13;;;0.40;99.90;;;;;;5031756;28;20195;-70
2023/12/04 02:08:48;;;;;;;17.20;11.80;;;0.40;99.90;;;;;;5031637;28;20171;-70
2023/12/04 02:11:14;;;;;;;15.93;12.33;;;0.40;99.90;;;;;;5031601;28;20178;-70
2023/12/04 02:13:40;;;;;;;15.43;11.43;;;0.40;99.90;;;;;;5031552;28;20254;-70
2023/12/04 02:16:09;;;;;;;17.27;13.20;;;0.40;99.90;;;;;;5031950;28;20191;-70
2023/12/04 02:18:36;;;;;;;18.40;12.33;;;0.40;99.90;;;;;;5031676;28;20187;-70
2023/12/04 02:21:02;;;;;;;17.03;12.10;;;0.40;99.90;;;;;;5031285;28;20218;-70
2023/12/04 02:23:28;;;;;;;16.83;12.20;;;0.40;99.90;;;;;;5031521;28;20678;-70
2023/12/04 02:26:05;;;;;;;15.47;11.87;;;0.40;99.90;;;;;;5031406;28;20207;-70
2023/12/04 02:28:34;;;;;;;16.23;12.67;;;0.40;99.90;;;;;;5031526;28;20330;-70
2023/12/04 02:31:00;;;;;;;17.67;11.50;;;0.40;99.90;;;;;;5027041;28;20187;-71
2023/12/04 02:33:27;;;;;;;14.47;11.37;;;0.40;99.90;;;;;;5011525;28;20187;-69
2023/12/04 02:35:53;;;;;;;14.57;11.93;;;0.40;99.90;;;;;;5011503;28;20584;-70
2023/12/04 02:38:20;;;;;;;16.93;12.47;;;0.40;99.90;;;;;;5011587;28;20241;-71
2023/12/04 02:40:46;;;;;;;17.10;12.93;;;0.40;99.90;;;;;;5011112;28;20204;-70
2023/12/04 02:43:12;;;;;;;12.80;11.37;;;0.40;99.90;;;;;;5011508;28;20682;-70
2023/12/04 02:45:37;;;;;;;13.63;11.77;;;0.40;99.90;;;;;;5028908;28;20246;-70
2023/12/04 02:48:03;;;;;;;17.67;11.67;;;0.40;99.90;;;;;;5029836;28;20172;-69
2023/12/04 02:50:29;;;;;;;18.87;11.33;;;0.40;99.90;;;;;;5030810;28;20302;-69
2023/12/04 02:52:54;;;;;;;17.47;13.13;;;0.40;99.90;;;;;;5029326;28;20303;-69
2023/12/04 02:55:20;;;;;;;14.77;11.90;;;0.40;99.90;;;;;;5031069;28;20199;-70
2023/12/04 02:57:45;;;;;;;15.40;12.30;;;0.40;99.90;;;;;;5031080;28;20273;-70
2023/12/04 03:00:11;;;;;;;15.17;11.93;;;0.40;99.90;;;;;;5017474;28;20362;-70
2023/12/04 03:02:37;;;;;;;16.60;12.37;;;0.40;99.90;;;;;;5011032;28;20537;-70
2023/12/04 03:05:03;;;;;;;16.30;12.60;;;0.30;99.90;;;;;;5011255;28;20200;-70
2023/12/04 03:07:28;;;;;;;14.63;11.03;;;0.30;99.90;;;;;;5011295;28;20180;-69
2023/12/04 03:09:54;;;;;;;15.87;12.17;;;0.30;99.90;;;;;;5011136;28;20177;-70
2023/12/04 03:12:19;;;;;;;15.47;11.20;;;0.30;99.90;;;;;;5011248;28;20172;-70
2023/12/04 03:14:45;;;;;;;16.33;12.00;;;0.30;99.90;;;;;;5011087;28;20576;-70
2023/12/04 03:17:11;;;;;;;16.73;11.13;;;0.30;99.90;;;;;;5011298;28;20171;-70
2023/12/04 03:19:36;;;;;;;13.87;11.13;;;0.30;99.90;;;;;;5011180;28;20262;-70
2023/12/04 03:22:02;;;;;;;16.73;12.00;;;0.30;99.90;;;;;;5011227;28;20169;-71
2023/12/04 03:24:27;;;;;;;15.23;12.33;;;0.30;99.90;;;;;;5011309;28;20544;-69
2023/12/04 03:26:53;;;;;;;14.23;12.17;;;0.20;99.90;;;;;;5013586;28;20274;-70
2023/12/04 03:29:19;;;;;;;15.13;11.67;;;0.30;99.90;;;;;;5031007;28;20172;-69
2023/12/04 03:31:44;;;;;;;15.23;11.00;;;0.30;99.90;;;;;;5030804;28;20182;-70
2023/12/04 03:34:10;;;;;;;13.87;10.67;;;0.30;99.90;;;;;;5031281;28;20226;-70
2023/12/04 03:36:35;;;;;;;14.83;11.33;;;0.30;99.90;;;;;;5030923;28;20245;-70
2023/12/04 03:39:01;;;;;;;13.67;10.77;;;0.30;99.90;;;;;;5030536;28;20565;-69
2023/12/04 03:41:26;;;;;;;15.80;11.07;;;0.20;99.90;;;;;;5031456;28;20175;-70
2023/12/04 03:43:52;;;;;;;16.17;12.50;;;0.30;99.90;;;;;;5030637;28;20210;-70
2023/12/04 03:46:18;;;;;;;14.27;10.93;;;0.20;99.90;;;;;;5030996;28;20687;-70
2023/12/04 03:48:43;;;;;;;13.37;10.73;;;0.30;99.90;;;;;;5030598;28;20171;-70
2023/12/04 03:51:09;;;;;;;16.27;11.80;;;0.20;99.90;;;;;;5030535;28;20171;-71
2023/12/04 03:53:34;;;;;;;15.90;11.73;;;0.30;99.90;;;;;;5026574;28;20198;-70
2023/12/04 03:56:00;;;;;;;13.90;11.13;;;0.30;99.90;;;;;;5010827;28;20196;-71
2023/12/04 03:58:26;;;;;;;14.10;10.80;;;0.30;99.90;;;;;;5011038;28;20212;-70
2023/12/04 04:00:51;;;;;;;14.17;10.93;;;0.30;99.90;;;;;;5013349;28;20262;-70
2023/12/04 04:03:17;;;;;;;14.73;10.57;;;0.20;99.90;;;;;;5014352;28;20287;-70
2023/12/04 04:05:42;;;;;;;13.00;10.63;;;0.30;99.90;;;;;;5014327;28;20557;-70
2023/12/04 04:08:08;;;;;;;14.17;11.03;;;0.30;99.90;;;;;;5016445;28;20183;-69
2023/12/04 04:10:34;;;;;;;16.97;11.80;;;0.30;99.90;;;;;;5033783;28;20176;-70
2023/12/04 04:13:00;;;;;;;13.83;11.47;;;0.30;99.90;;;;;;5033839;28;20254;-69
2023/12/04 04:15:26;;;;;;;14.40;11.63;;;0.30;99.90;;;;;;5033860;28;20196;-71
2023/12/04 04:17:52;;;;;;;12.13;10.73;;;0.30;99.90;;;;;;5033942;28;20870;-71
2023/12/04 04:20:17;;;;;;;14.87;12.03;;;0.20;99.90;;;;;;5033829;28;20203;-71
2023/12/04 04:22:43;;;;;;;14.93;11.40;;;0.20;99.90;;;;;;5020462;28;20176;-70
2023/12/04 04:25:09;;;;;;;16.87;11.57;;;0.20;99.90;;;;;;5013926;28;20639;-70
2023/12/04 04:27:35;;;;;;;14.67;10.23;;;0.20;99.90;;;;;;5012946;28;20251;-70
2023/12/04 04:30:01;;;;;;;16.50;11.43;;;0.20;99.90;;;;;;5013439;28;20327;-70
2023/12/04 04:32:27;;;;;;;15.87;12.00;;;0.30;99.90;;;;;;5013746;28;20534;-69
2023/12/04 04:34:52;;;;;;;16.87;11.37;;;0.20;99.90;;;;;;5027214;28;20552;-70
2023/12/04 04:37:19;;;;;;;13.53;10.50;;;0.30;99.90;;;;;;5033686;28;20182;-70
2023/12/04 04:39:45;;;;;;;15.20;11.10;;;0.30;99.90;;;;;;5032870;28;20195;-70
2023/12/04 04:42:11;;;;;;;12.70;11.37;;;0.20;99.90;;;;;;5013868;28;20180;-70
2023/12/04 04:44:37;;;;;;;12.93;11.40;;;0.20;99.90;;;;;;5013716;28;20184;-70
2023/12/04 04:47:02;;;;;;;14.17;11.50;;;0.20;99.90;;;;;;5013623;28;20192;-70
2023/12/04 04:49:28;;;;;;;13.13;11.53;;;0.20;99.90;;;;;;5012502;28;20176;-70
2023/12/04 04:51:53;;;;;;;16.77;11.77;;;0.20;99.90;;;;;;5013354;28;20184;-70
2023/12/04 04:54:19;;;;;;;13.80;11.00;;;0.20;99.90;;;;;;5025299;28;20258;-70
2023/12/04 04:56:45;;;;;;;15.17;12.07;;;0.20;99.90;;;;;;5033139;28;20187;-70
2023/12/04 04:59:10;;;;;;;15.87;10.63;;;0.20;99.90;;;;;;5033064;28;20203;-70
2023/12/04 05:01:36;;;;;;;13.87;11.50;;;0.10;99.90;;;;;;5033807;28;20180;-70
2023/12/04 05:04:02;;;;;;;15.93;11.37;;;0.10;99.90;;;;;;5034033;28;20176;-70
2023/12/04 05:06:28;;;;;;;19.07;12.53;;;0.10;99.90;;;;;;5033133;28;20237;-70
2023/12/04 05:08:54;;;;;;;15.90;11.63;;;0.10;99.90;;;;;;5022059;28;20184;-70
2023/12/04 05:11:20;;;;;;;15.30;12.20;;;0.00;99.90;;;;;;5013188;28;20259;-70
2023/12/04 05:13:45;;;;;;;15.30;12.07;;;0.10;99.90;;;;;;5013017;28;20183;-70
2023/12/04 05:16:11;;;;;;;14.90;11.73;;;0.00;99.90;;;;;;5013089;28;20271;-70
2023/12/04 05:18:38;;;;;;;19.10;12.47;;;0.00;99.90;;;;;;5015940;28;20183;-70
2023/12/04 05:21:11;;;;;;;14.63;12.17;;;0.00;99.90;;;;;;5030499;28;20234;-71
2023/12/04 05:23:37;;;;;;;17.47;11.70;;;0.00;99.90;;;;;;5032314;28;20550;-70
2023/12/04 05:26:04;;;;;;;14.80;12.60;;;0.00;99.90;;;;;;5032732;28;20282;-71
2023/12/04 05:28:30;;;;;;;15.03;12.17;;;0.00;99.90;;;;;;5032809;28;20178;-70
2023/12/04 05:30:55;;;;;;;15.67;12.17;;;0.10;99.90;;;;;;5032184;28;20179;-70
2023/12/04 05:33:21;;;;;;;14.77;11.90;;;0.10;99.90;;;;;;5032124;28;20176;-70
2023/12/04 05:35:48;;;;;;;16.77;12.57;;;0.10;99.90;;;;;;5032169;28;20696;-70
2023/12/04 05:38:13;;;;;;;17.10;12.43;;;0.10;99.90;;;;;;5032008;28;20210;-70
2023/12/04 05:40:39;;;;;;;17.57;12.83;;;0.10;99.90;;;;;;5032581;28;20235;-70
2023/12/04 05:43:05;;;;;;;17.43;12.73;;;0.10;99.90;;;;;;5032320;28;20175;-70
2023/12/04 05:45:30;;;;;;;18.73;11.80;;;0.20;99.90;;;;;;5032364;28;20195;-70
2023/12/04 05:47:56;;;;;;;17.97;12.10;;;0.20;99.90;;;;;;5032448;28;20187;-71
2023/12/04 05:50:21;;;;;;;16.77;11.70;;;0.20;99.90;;;;;;5020153;28;20618;-70
2023/12/04 05:52:47;;;;;;;15.30;12.83;;;0.20;99.90;;;;;;5010879;28;20215;-70
2023/12/04 05:55:13;;;;;;;14.70;11.87;;;0.20;99.90;;;;;;5012290;28;20200;-70
2023/12/04 05:57:39;;;;;;;15.33;11.77;;;0.30;99.90;;;;;;5012381;28;20180;-69
2023/12/04 06:00:12;;;;;;;15.13;12.07;;;0.30;99.90;;;;;;5012163;28;20202;-70
2023/12/04 06:02:38;;;;;;;15.83;12.73;;;0.30;99.90;;;;;;5012162;28;20176;-70
2023/12/04 06:05:04;;;;;;;14.70;12.83;;;0.30;99.90;;;;;;5011767;28;20287;-71
2023/12/04 06:07:30;;;;;;;15.97;12.53;;;0.30;99.90;;;;;;5012270;28;20173;-70
2023/12/04 06:09:56;;;;;;;16.17;12.07;;;0.30;99.90;;;;;;5012007;28;20264;-70
2023/12/04 06:12:21;;;;;;;18.53;13.40;;;0.30;99.90;;;;;;5012008;28;20230;-69
2023/12/04 06:14:47;;;;;;;17.33;12.93;;;0.30;99.90;;;;;;5011792;28;20250;-70
2023/12/04 06:17:12;;;;;;;15.73;12.37;;;0.40;99.90;;;;;;5013753;28;20203;-70
2023/12/04 06:19:38;;;;;;;19.43;13.23;;;0.40;99.90;;;;;;5031663;28;20211;-70
2023/12/04 06:22:03;;;;;;;16.13;13.10;;;0.40;99.90;;;;;;5031338;28;20182;-70
2023/12/04 06:24:30;;;;;;;20.37;13.60;;;0.40;99.90;;;;;;5032344;28;20179;-70
2023/12/04 06:26:57;;;;;;;14.60;12.07;;;0.40;99.90;;;;;;5032879;28;20533;-70
2023/12/04 06:29:23;;;;;;;15.83;12.17;;;0.40;99.90;;;;;;5031383;28;20175;-70
2023/12/04 06:31:49;;;;;;;20.67;13.13;;;0.40;99.90;;;;;;5031151;28;20659;-71
2023/12/04 06:34:15;;;;;;;16.97;12.27;;;0.40;99.90;;;;;;5031168;28;20199;-70
2023/12/04 06:36:40;;;;;;;18.33;13.70;;;0.50;99.90;;;;;;5031016;28;20294;-71
2023/12/04 06:39:10;;;;;;;18.17;14.07;;;0.50;99.90;;;;;;5031061;28;20711;-70
2023/12/04 06:41:36;;;;;;;15.40;13.03;;;0.40;99.90;;;;;;5019242;28;20176;-70
2023/12/04 06:44:02;;;;;;;18.57;14.83;;;0.40;99.90;;;;;;5011679;28;20172;-70
2023/12/04 06:46:30;;;;;;;21.67;14.53;;;0.50;99.90;;;;;;5023537;28;20202;-70
2023/12/04 06:48:59;;;;;;;17.77;13.70;;;0.50;99.90;;;;;;5030982;28;20199;-70
2023/12/04 06:51:25;;;;;;;19.00;13.57;;;0.50;99.90;;;;;;5011335;28;20658;-70
2023/12/04 06:53:51;;;;;;;15.70;13.40;;;0.50;99.90;;;;;;5011406;28;20274;-70
2023/12/04 06:56:16;;;;;;;21.17;14.40;;;0.50;99.90;;;;;;5011361;28;20237;-70
2023/12/04 06:58:42;;;;;;;20.87;15.23;;;0.50;99.90;;;;;;5011687;28;20187;-70
2023/12/04 07:01:07;;;;;;;16.03;12.43;;;0.50;99.90;;;;;;5010714;28;20207;-71
2023/12/04 07:03:33;;;;;;;18.83;13.67;;;0.50;99.90;;;;;;5011382;28;20173;-70
2023/12/04 07:05:58;;;;;;;19.47;14.70;;;0.50;99.90;;;;;;5011176;28;20192;-70
2023/12/04 07:08:24;;;;;;;22.43;15.67;;;0.50;99.90;;;;;;5011911;28;20168;-70
2023/12/04 07:10:50;;;;;;;20.73;14.13;;;0.50;99.90;;;;;;5010902;28;20176;-70
2023/12/04 07:13:16;;;;;;;18.33;13.93;;;0.40;99.90;;;;;;5011275;28;20182;-69
2023/12/04 07:15:41;;;;;;;20.43;15.63;;;0.50;99.90;;;;;;5011113;28;20200;-70
2023/12/04 07:18:07;;;;;;;20.90;14.97;;;0.50;99.90;;;;;;5011165;28;20176;-69
2023/12/04 07:20:33;;;;;;;18.37;14.27;;;0.50;99.90;;;;;;5011200;28;20204;-70
2023/12/04 07:22:59;;;;;;;21.77;14.73;;;0.50;99.90;;;;;;5011131;28;20207;-70
2023/12/04 07:25:25;;;;;;;20.53;14.27;;;0.60;99.90;;;;;;5010965;28;20191;-70
2023/12/04 07:27:50;;;;;;;21.97;15.07;;;0.60;99.90;;;;;;5011059;28;20533;-71
2023/12/04 07:30:16;;;;;;;19.63;14.67;;;0.60;99.90;;;;;;5010983;28;20175;-70
2023/12/04 07:32:41;;;;;;;19.17;13.57;;;0.60;99.90;;;;;;5010894;28;20663;-70
2023/12/04 07:35:07;;;;;;;20.43;13.70;;;0.60;99.90;;;;;;5012418;28;20506;-70
2023/12/04 07:37:33;;;;;;;16.40;13.57;;;0.70;99.90;;;;;;5015660;28;20181;-70
2023/12/04 07:39:59;;;;;;;19.17;13.80;;;0.60;99.90;;;;;;5014539;28;20291;-70
2023/12/04 07:42:24;;;;;;;17.33;13.37;;;0.70;99.90;;;;;;5014759;28;20183;-70
2023/12/04 07:44:50;;;;;;;19.33;13.43;;;0.70;99.90;;;;;;5014727;28;20176;-71
2023/12/04 07:47:16;;;;;;;17.07;13.47;;;0.70;99.90;;;;;;5015037;28;20276;-70
2023/12/04 07:49:43;;;;;;;20.37;12.33;;;0.70;99.90;;;;;;5014920;28;20172;-70
2023/12/04 07:52:11;;;;;;;19.47;14.17;;;0.70;99.90;;;;;;5014191;28;20183;-71
2023/12/04 07:54:36;;;;;;;17.13;13.03;;;0.80;99.90;;;;;;5014420;28;20168;-70
2023/12/04 07:57:02;;;;;;;14.27;12.10;;;0.80;99.90;;;;;;5014346;28;20208;-70
2023/12/04 07:59:28;;;;;;;16.43;12.33;;;0.70;99.90;;;;;;5014483;28;20660;-70
2023/12/04 08:01:54;;;;;;;16.70;12.87;;;0.80;99.90;;;;;;5014058;28;20263;-69
2023/12/04 08:04:20;;;;;;;19.97;13.43;;;0.80;99.90;;;;;;5014346;28;20666;-70
2023/12/04 08:06:45;;;;;;;15.23;12.03;;;0.80;99.90;;;;;;5014127;28;20189;-71
2023/12/04 08:09:11;;;;;;;16.87;12.83;;;0.80;99.90;;;;;;5014234;28;20184;-70
2023/12/04 08:11:37;;;;;;;14.47;11.93;;;0.90;99.90;;;;;;5014082;28;20287;-70
2023/12/04 08:14:03;;;;;;;17.80;13.20;;;0.90;99.90;;;;;;5014083;28;20172;-70
2023/12/04 08:16:29;;;;;;;18.43;13.00;;;0.90;99.90;;;;;;5014083;28;20192;-70
2023/12/04 08:18:55;;;;;;;19.90;13.57;;;0.80;99.90;;;;;;5013878;28;20179;-70
2023/12/04 08:21:21;;;;;;;16.53;12.87;;;0.90;99.90;;;;;;5013739;28;20575;-70
2023/12/04 08:23:46;;;;;;;19.77;12.93;;;0.90;99.90;;;;;;5014301;28;20181;-71
2023/12/04 08:26:12;;;;;;;18.80;13.97;;;0.90;99.90;;;;;;5013513;28;20203;-70
2023/12/04 08:28:41;;;;;;;16.70;13.43;;;0.90;99.90;;;;;;5014097;28;20181;-70
2023/12/04 08:31:08;;;;;;;17.67;12.83;;;0.80;99.90;;;;;;5013692;28;20660;-69
2023/12/04 08:33:37;;;;;;;16.97;12.57;;;0.90;99.90;;;;;;5013805;28;20221;-71
2023/12/04 08:36:03;;;;;;;14.73;12.47;;;0.90;99.90;;;;;;5013399;28;20208;-71
2023/12/04 08:38:28;;;;;;;15.47;12.77;;;0.90;99.90;;;;;;5013802;28;20179;-70
2023/12/04 08:40:54;;;;;;;19.17;12.83;;;0.90;99.90;;;;;;5013209;28;20291;-70
2023/12/04 08:43:20;;;;;;;17.30;13.03;;;0.90;99.90;;;;;;5013463;28;20195;-71
2023/12/04 08:45:46;;;;;;;19.80;13.27;;;1.00;99.90;;;;;;5012838;28;20319;-71
2023/12/04 08:48:11;;;;;;;16.10;11.63;;;0.90;99.90;;;;;;5013425;28;20546;-71
2023/12/04 08:50:37;;;;;;;16.43;12.40;;;1.00;99.90;;;;;;5013312;28;20587;-71
2023/12/04 08:53:06;;;;;;;14.97;12.23;;;1.00;99.90;;;;;;5013529;28;20620;-71
2023/12/04 08:55:32;;;;;;;18.50;13.00;;;1.00;99.90;;;;;;5013130;28;20196;-70
2023/12/04 08:57:57;;;;;;;16.20;11.93;;;1.10;99.90;;;;;;5013286;28;20258;-70
2023/12/04 09:00:23;;;;;;;16.90;12.60;;;1.10;99.90;;;;;;5013326;28;20196;-71
2023/12/04 09:02:49;;;;;;;17.00;12.73;;;1.10;99.90;;;;;;5012874;28;20180;-71
2023/12/04 09:05:14;;;;;;;15.70;12.20;;;1.10;99.90;;;;;;5012966;28;20261;-71
2023/12/04 09:07:40;;;;;;;16.30;12.60;;;1.10;99.90;;;;;;5013443;28;20164;-71
2023/12/04 09:10:06;;;;;;;14.70;12.03;;;1.20;99.90;;;;;;5013750;28;20276;-70
2023/12/04 09:12:32;;;;;;;13.20;11.70;;;1.20;99.90;;;;;;5013125;28;20644;-69
2023/12/04 09:14:58;;;;;;;15.97;12.93;;;1.30;99.90;;;;;;5012592;28;20177;-70
2023/12/04 09:17:23;;;;;;;15.30;11.67;;;1.20;99.90;;;;;;5012838;28;20172;-71
2023/12/04 09:19:49;;;;;;;17.87;12.33;;;1.20;99.90;;;;;;5012553;28;20261;-70
2023/12/04 09:22:14;;;;;;;17.33;12.20;;;1.20;99.90;;;;;;5012504;28;20219;-70
2023/12/04 09:24:40;;;;;;;17.10;13.37;;;1.20;99.90;;;;;;5012644;28;20593;-70
2023/12/04 09:27:08;;;;;;;16.40;12.57;;;1.20;99.90;;;;;;5012227;28;20184;-69
2023/12/04 09:29:34;;;;;;;15.27;12.47;;;1.20;99.90;;;;;;5012600;28;20169;-71
2023/12/04 09:32:00;;;;;;;15.63;12.57;;;1.20;99.90;;;;;;5012299;28;20176;-71
2023/12/04 09:34:25;;;;;;;14.27;11.60;;;1.20;99.90;;;;;;5012532;28;20619;-70
2023/12/04 09:36:51;;;;;;;17.73;12.97;;;1.30;99.90;;;;;;5012398;28;20290;-69
2023/12/04 09:39:16;;;;;;;16.47;12.20;;;1.30;99.90;;;;;;5012140;28;20172;-69
2023/12/04 09:41:43;;;;;;;15.60;12.77;;;1.40;99.90;;;;;;5012266;28;20705;-70
2023/12/04 09:44:09;;;;;;;15.90;12.23;;;1.40;99.90;;;;;;5012274;28;20183;-70
2023/12/04 09:46:35;;;;;;;13.57;11.70;;;1.40;99.90;;;;;;5011026;28;20243;-71
2023/12/04 09:49:02;;;;;;;16.47;11.83;;;1.50;99.90;;;;;;5012021;28;20710;-70
2023/12/04 09:51:28;;;;;;;13.77;10.77;;;1.60;99.90;;;;;;5011968;28;20168;-70
2023/12/04 09:53:57;;;;;;;15.17;11.60;;;1.60;99.90;;;;;;5012304;28;20176;-71
2023/12/04 09:56:23;;;;;;;17.00;11.53;;;1.60;99.90;;;;;;5012055;28;20219;-70
2023/12/04 09:58:57;;;;;;;15.30;12.37;;;1.70;99.90;;;;;;5011534;28;20199;-70
2023/12/04 10:01:23;;;;;;;12.80;11.43;;;1.70;99.90;;;;;;5011774;28;20243;-70
2023/12/04 10:03:50;;;;;;;16.13;12.10;;;1.70;99.90;;;;;;5011978;28;20176;-69
2023/12/04 10:06:19;;;;;;;16.53;12.77;;;1.70;99.90;;;;;;5011877;28;20199;-70
2023/12/04 10:08:45;;;;;;;16.17;12.37;;;1.70;99.90;;;;;;5012007;28;20165;-70
2023/12/04 10:11:14;;;;;;;13.47;11.63;;;1.80;99.90;;;;;;5011812;28;20180;-71
2023/12/04 10:13:42;;;;;;;14.03;11.10;;;1.80;99.90;;;;;;5011748;28;20648;-71
2023/12/04 10:16:08;;;;;;;17.80;11.20;;;1.80;99.90;;;;;;5011690;28;20254;-69
2023/12/04 10:18:34;;;;;;;13.27;10.97;;;1.80;99.90;;;;;;5011870;28;20180;-70
2023/12/04 10:21:00;;;;;;;14.10;10.53;;;1.80;99.90;;;;;;5010620;28;20286;-70
2023/12/04 10:23:42;;;;;;;14.27;11.97;;;1.70;99.90;;;;;;5011443;28;20713;-70
2023/12/04 10:26:08;;;;;;;14.20;11.20;;;1.80;99.90;;;;;;5011353;28;20195;-70
2023/12/04 10:28:35;;;;;;;12.93;11.10;;;1.80;99.90;;;;;;5011754;28;20250;-70
2023/12/04 10:31:01;;;;;;;13.13;11.37;;;1.80;99.90;;;;;;5011415;28;20204;-70
2023/12/04 10:33:29;;;;;;;13.40;11.50;;;1.80;99.90;;;;;;5012208;28;20168;-70
2023/12/04 10:35:55;;;;;;;11.83;10.57;;;1.70;99.90;;;;;;5011430;28;20675;-70
2023/12/04 10:38:21;;;;;;;15.90;11.53;;;1.70;99.90;;;;;;5011605;28;20251;-70
2023/12/04 10:40:47;;;;;;;13.00;11.00;;;1.70;99.90;;;;;;5011372;28;20204;-70
2023/12/04 10:43:22;;;;;;;13.37;11.33;;;1.70;99.90;;;;;;5011858;28;20180;-70
2023/12/04 10:45:49;;;;;;;13.07;11.63;;;1.70;99.90;;;;;;5011517;28;20569;-70
2023/12/04 10:48:16;;;;;;;13.73;11.30;;;1.70;99.90;;;;;;5011404;28;20175;-70
2023/12/04 10:50:44;;;;;;;14.00;11.73;;;1.70;99.90;;;;;;5011004;28;20538;-69
2023/12/04 10:53:12;;;;;;;13.77;11.40;;;1.70;99.90;;;;;;5011037;28;20267;-70
2023/12/04 10:55:39;;;;;;;14.97;12.13;;;1.70;99.90;;;;;;5011195;28;20204;-71
2023/12/04 10:58:08;;;;;;;14.70;11.77;;;1.60;99.90;;;;;;5011151;28;20263;-70
2023/12/04 11:00:37;;;;;;;15.50;10.67;;;1.60;99.90;;;;;;5011069;28;20575;-71
2023/12/04 11:03:09;;;;;;;14.43;11.40;;;1.50;99.90;;;;;;5010943;28;20175;-70
2023/12/04 11:05:40;;;;;;;14.27;11.20;;;1.50;99.90;;;;;;5011534;28;20199;-70
2023/12/04 11:08:08;;;;;;;12.93;10.63;;;1.50;99.90;;;;;;5011417;28;20165;-70
2023/12/04 11:10:41;;;;;;;13.67;11.40;;;1.50;99.90;;;;;;5014999;28;20168;-71
2023/12/04 11:13:15;;;;;;;15.83;11.47;;;1.50;99.90;;;;;;5015349;28;20670;-71
2023/12/04 11:15:45;;;;;;;12.87;10.57;;;1.50;99.90;;;;;;5015368;28;20680;-70
2023/12/04 11:18:14;;;;;;;15.83;11.67;;;1.50;99.90;;;;;;5013816;28;20177;-71
2023/12/04 11:20:50;;;;;;;13.03;11.37;;;1.50;99.90;;;;;;5014845;28;20196;-71
2023/12/04 11:23:16;;;;;;;14.20;11.87;;;1.50;99.90;;;;;;5014597;28;20164;-70
2023/12/04 11:25:43;;;;;;;13.43;11.93;;;1.50;99.90;;;;;;5014564;28;20257;-70
2023/12/04 11:28:11;;;;;;;13.13;11.60;;;1.60;99.90;;;;;;5014705;28;20168;-70
2023/12/04 11:30:37;;;;;;;14.50;11.97;;;1.60;99.90;;;;;;5014672;28;20175;-70
2023/12/04 11:33:05;;;;;;;15.07;11.50;;;1.70;99.90;;;;;;5014372;28;20544;-70
2023/12/04 11:35:33;;;;;;;16.83;11.97;;;1.80;99.90;;;;;;5019543;28;20673;-70
2023/12/04 11:37:58;;;;;;;14.13;12.00;;;1.90;99.90;;;;;;5034624;28;20167;-71
2023/12/04 11:40:25;;;;;;;16.50;11.60;;;1.90;99.90;;;;;;5034352;28;20214;-70
2023/12/04 11:42:52;;;;;;;16.63;12.87;;;2.00;99.90;;;;;;5034192;28;20553;-70
2023/12/04 11:45:20;;;;;;;15.97;12.50;;;2.00;99.90;;;;;;5034094;28;20203;-71
2023/12/04 11:47:58;;;;;;;15.70;12.80;;;1.90;99.90;;;;;;5021600;28;20184;-70
2023/12/04 11:50:27;;;;;;;16.07;12.33;;;1.90;99.90;;;;;;5014549;28;20277;-70
2023/12/04 11:52:54;;;;;;;14.60;12.30;;;1.90;99.90;;;;;;5014455;28;20619;-70
2023/12/04 11:55:25;;;;;;;16.37;12.70;;;1.90;99.90;;;;;;5014842;28;20278;-70
2023/12/04 11:57:54;;;;;;;16.17;12.50;;;1.80;99.90;;;;;;5013145;28;20230;-70
2023/12/04 12:00:22;;;;;;;16.70;12.60;;;1.70;99.90;;;;;;5013353;28;20308;-70
2023/12/04 12:02:53;;;;;;;17.63;13.30;;;1.60;99.90;;;;;;5013880;28;20177;-71
2023/12/04 12:05:23;;;;;;;20.67;13.67;;;1.50;99.90;;;;;;5012515;28;20196;-70
2023/12/04 12:07:49;;;;;;;17.40;13.90;;;1.40;99.90;;;;;;5014106;28;20165;-70
2023/12/04 12:10:16;;;;;;;16.10;12.17;;;1.40;99.90;;;;;;5013725;28;20210;-70
2023/12/04 12:12:44;;;;;;;20.53;14.90;;;1.40;99.90;;;;;;5012625;28;20213;-70
2023/12/04 12:15:11;;;;;;;16.53;12.43;;;1.40;99.90;;;;;;5021188;28;20285;-70
2023/12/04 12:17:41;;;;;;;17.10;13.20;;;1.40;99.90;;;;;;5033871;28;20183;-70
2023/12/04 12:20:08;;;;;;;15.00;12.20;;;1.50;99.90;;;;;;5032646;28;20199;-70
2023/12/04 12:22:35;;;;;;;17.27;13.33;;;1.40;99.90;;;;;;5032707;28;20199;-70
2023/12/04 12:25:04;;;;;;;19.20;13.23;;;1.40;99.90;;;;;;5034318;28;20282;-70
2023/12/04 12:27:30;;;;;;;19.20;13.83;;;1.40;99.90;;;;;;5033998;28;20650;-70
2023/12/04 12:29:56;;;;;;;16.33;13.53;;;1.40;99.90;;;;;;5032668;28;20214;-69